sensor_id;sensor_type;location;lat;lon;timestamp;pressure;altitude;pressure_sealevel;temperature;humidity
78073;BME280;67281;48.770;11.440;2023-08-24T00:01:57;97492.28;;;27.81;49.47
78073;BME280;67281;48.770;11.440;2023-08-24T00:04:24;97491.03;;;27.77;49.21
78073;BME280;67281;48.770;11.440;2023-08-24T00:06:51;97487.53;;;27.77;49.06
78073;BME280;67281;48.770;11.440;2023-08-24T00:09:18;97483.38;;;27.74;49.88
78073;BME280;67281;48.770;11.440;2023-08-24T00:11:45;97485.25;;;27.61;49.98
78073;BME280;67281;48.770;11.440;2023-08-24T00:14:12;97486.28;;;27.66;49.64
78073;BME280;67281;48.770;11.440;2023-08-24T00:16:39;97488.97;;;27.66;49.66
78073;BME280;67281;48.770;11.440;2023-08-24T00:19:07;97488.97;;;27.73;49.63
78073;BME280;67281;48.770;11.440;2023-08-24T00:21:35;97486.69;;;27.76;49.16
78073;BME280;67281;48.770;11.440;2023-08-24T00:24:01;97488.97;;;27.73;49.39
78073;BME280;67281;48.770;11.440;2023-08-24T00:26:28;97489.81;;;27.67;49.09
78073;BME280;67281;48.770;11.440;2023-08-24T00:28:55;97485.47;;;27.66;48.88
78073;BME280;67281;48.770;11.440;2023-08-24T00:31:22;97486.09;;;27.68;49.08
78073;BME280;67281;48.770;11.440;2023-08-24T00:33:49;97482.97;;;27.71;49.68
78073;BME280;67281;48.770;11.440;2023-08-24T00:36:17;97483.19;;;27.69;49.37
78073;BME280;67281;48.770;11.440;2023-08-24T00:38:50;97481.13;;;27.65;49.01
78073;BME280;67281;48.770;11.440;2023-08-24T00:41:18;97483.59;;;27.60;49.93
78073;BME280;67281;48.770;11.440;2023-08-24T00:43:45;97476.97;;;27.49;49.58
78073;BME280;67281;48.770;11.440;2023-08-24T00:46:13;97482.59;;;27.47;48.95
78073;BME280;67281;48.770;11.440;2023-08-24T00:48:40;97478.03;;;27.48;49.23
78073;BME280;67281;48.770;11.440;2023-08-24T00:51:07;97477.41;;;27.46;49.42
78073;BME280;67281;48.770;11.440;2023-08-24T00:53:34;97475.34;;;27.41;49.17
78073;BME280;67281;48.770;11.440;2023-08-24T00:56:03;97472.44;;;27.43;49.65
78073;BME280;67281;48.770;11.440;2023-08-24T00:58:31;97467.28;;;27.35;49.20
78073;BME280;67281;48.770;11.440;2023-08-24T01:00:58;97475.53;;;27.40;48.90
78073;BME280;67281;48.770;11.440;2023-08-24T01:03:25;97468.91;;;27.36;48.79
78073;BME280;67281;48.770;11.440;2023-08-24T01:05:52;97466.84;;;27.31;49.52
78073;BME280;67281;48.770;11.440;2023-08-24T01:08:21;97473.88;;;27.39;48.71
78073;BME280;67281;48.770;11.440;2023-08-24T01:10:57;97471.00;;;27.34;49.07
78073;BME280;67281;48.770;11.440;2023-08-24T01:13:38;97467.28;;;27.28;48.97
78073;BME280;67281;48.770;11.440;2023-08-24T01:16:14;97466.66;;;27.33;48.83
78073;BME280;67281;48.770;11.440;2023-08-24T01:18:43;97476.78;;;27.37;49.36
78073;BME280;67281;48.770;11.440;2023-08-24T01:21:12;97466.84;;;27.31;48.71
78073;BME280;67281;48.770;11.440;2023-08-24T01:24:17;97466.44;;;27.14;49.98
78073;BME280;67281;48.770;11.440;2023-08-24T01:26:48;97455.25;;;27.24;49.42
78073;BME280;67281;48.770;11.440;2023-08-24T01:29:15;97465.59;;;27.40;48.46
78073;BME280;67281;48.770;11.440;2023-08-24T01:31:43;97461.47;;;27.25;49.07
78073;BME280;67281;48.770;11.440;2023-08-24T01:34:10;97462.50;;;27.17;48.92
78073;BME280;67281;48.770;11.440;2023-08-24T01:36:36;97462.28;;;27.45;48.03
78073;BME280;67281;48.770;11.440;2023-08-24T01:39:29;97461.06;;;27.34;47.71
78073;BME280;67281;48.770;11.440;2023-08-24T01:42:02;97464.38;;;27.16;48.67
78073;BME280;67281;48.770;11.440;2023-08-24T01:44:35;97461.69;;;27.30;48.71
78073;BME280;67281;48.770;11.440;2023-08-24T01:47:04;97460.22;;;27.21;49.20
78073;BME280;67281;48.770;11.440;2023-08-24T01:49:34;97463.53;;;27.16;48.97
78073;BME280;67281;48.770;11.440;2023-08-24T01:52:02;97464.16;;;27.18;49.33
78073;BME280;67281;48.770;11.440;2023-08-24T01:54:31;97454.44;;;27.10;49.42
78073;BME280;67281;48.770;11.440;2023-08-24T01:56:58;97456.72;;;27.13;48.71
78073;BME280;67281;48.770;11.440;2023-08-24T01:59:25;97460.00;;;27.02;49.09
78073;BME280;67281;48.770;11.440;2023-08-24T02:01:52;97452.16;;;27.07;48.21
78073;BME280;67281;48.770;11.440;2023-08-24T02:04:19;97458.97;;;27.03;49.05
78073;BME280;67281;48.770;11.440;2023-08-24T02:06:46;97445.91;;;26.87;49.52
78073;BME280;67281;48.770;11.440;2023-08-24T02:09:13;97442.78;;;26.83;49.47
78073;BME280;67281;48.770;11.440;2023-08-24T02:11:39;97446.34;;;27.04;48.67
78073;BME280;67281;48.770;11.440;2023-08-24T02:14:06;97444.50;;;27.24;48.64
78073;BME280;67281;48.770;11.440;2023-08-24T02:16:35;97442.84;;;27.16;48.43
78073;BME280;67281;48.770;11.440;2023-08-24T02:19:02;97445.31;;;27.31;48.29
78073;BME280;67281;48.770;11.440;2023-08-24T02:21:29;97435.81;;;27.29;48.46
78073;BME280;67281;48.770;11.440;2023-08-24T02:23:56;97442.22;;;27.28;47.66
78073;BME280;67281;48.770;11.440;2023-08-24T02:26:23;97440.34;;;27.28;48.34
78073;BME280;67281;48.770;11.440;2023-08-24T02:28:50;97443.25;;;27.27;47.63
78073;BME280;67281;48.770;11.440;2023-08-24T02:31:16;97440.16;;;27.16;48.30
78073;BME280;67281;48.770;11.440;2023-08-24T02:33:43;97440.34;;;27.08;48.84
78073;BME280;67281;48.770;11.440;2023-08-24T02:36:10;97431.22;;;26.90;49.79
78073;BME280;67281;48.770;11.440;2023-08-24T02:38:37;97425.84;;;26.90;49.41
78073;BME280;67281;48.770;11.440;2023-08-24T02:41:05;97427.94;;;27.07;49.21
78073;BME280;67281;48.770;11.440;2023-08-24T02:43:35;97429.19;;;27.18;48.72
78073;BME280;67281;48.770;11.440;2023-08-24T02:46:03;97423.78;;;27.05;49.23
78073;BME280;67281;48.770;11.440;2023-08-24T02:48:31;97425.41;;;26.93;49.96
78073;BME280;67281;48.770;11.440;2023-08-24T02:51:00;97432.66;;;26.85;49.92
78073;BME280;67281;48.770;11.440;2023-08-24T02:53:27;97426.66;;;26.70;50.44
78073;BME280;67281;48.770;11.440;2023-08-24T02:55:55;97419.59;;;26.76;50.44
78073;BME280;67281;48.770;11.440;2023-08-24T02:58:22;97423.56;;;26.73;51.13
78073;BME280;67281;48.770;11.440;2023-08-24T03:00:49;97433.06;;;26.76;50.66
78073;BME280;67281;48.770;11.440;2023-08-24T03:03:16;97415.06;;;26.63;51.40
78073;BME280;67281;48.770;11.440;2023-08-24T03:05:56;97424.81;;;26.71;51.26
78073;BME280;67281;48.770;11.440;2023-08-24T03:08:23;97422.13;;;26.71;51.52
78073;BME280;67281;48.770;11.440;2023-08-24T03:10:50;97425.88;;;27.03;50.89
78073;BME280;67281;48.770;11.440;2023-08-24T03:13:17;97427.53;;;27.10;50.65
78073;BME280;67281;48.770;11.440;2023-08-24T03:15:44;97433.53;;;27.06;50.98
78073;BME280;67281;48.770;11.440;2023-08-24T03:18:12;97433.31;;;27.07;49.95
78073;BME280;67281;48.770;11.440;2023-08-24T03:20:40;97428.16;;;27.06;50.38
78073;BME280;67281;48.770;11.440;2023-08-24T03:23:07;97440.09;;;26.77;51.24
78073;BME280;67281;48.770;11.440;2023-08-24T03:25:39;97441.34;;;26.61;51.88
78073;BME280;67281;48.770;11.440;2023-08-24T03:28:07;97440.75;;;26.18;52.94
78073;BME280;67281;48.770;11.440;2023-08-24T03:30:39;97439.53;;;25.73;54.80
78073;BME280;67281;48.770;11.440;2023-08-24T03:33:06;97444.22;;;26.05;53.92
78073;BME280;67281;48.770;11.440;2023-08-24T03:35:33;97437.94;;;26.33;53.08
78073;BME280;67281;48.770;11.440;2023-08-24T03:38:00;97437.53;;;26.36;52.55
78073;BME280;67281;48.770;11.440;2023-08-24T03:40:27;97433.19;;;26.35;52.76
78073;BME280;67281;48.770;11.440;2023-08-24T03:42:54;97433.75;;;26.24;52.61
78073;BME280;67281;48.770;11.440;2023-08-24T03:45:22;97432.19;;;26.42;52.63
78073;BME280;67281;48.770;11.440;2023-08-24T03:47:49;97435.75;;;26.63;51.58
78073;BME280;67281;48.770;11.440;2023-08-24T03:50:17;97443.81;;;26.63;52.06
78073;BME280;67281;48.770;11.440;2023-08-24T03:52:44;97441.94;;;26.50;51.73
78073;BME280;67281;48.770;11.440;2023-08-24T03:55:11;97439.84;;;26.45;51.73
78073;BME280;67281;48.770;11.440;2023-08-24T03:57:38;97430.75;;;26.46;52.30
78073;BME280;67281;48.770;11.440;2023-08-24T04:00:06;97436.94;;;26.47;52.00
78073;BME280;67281;48.770;11.440;2023-08-24T04:02:41;97438.69;;;26.20;51.80
78073;BME280;67281;48.770;11.440;2023-08-24T04:05:08;97448.16;;;26.09;51.60
78073;BME280;67281;48.770;11.440;2023-08-24T04:07:35;97445.47;;;26.09;51.28
78073;BME280;67281;48.770;11.440;2023-08-24T04:10:07;97443.38;;;25.98;52.15
78073;BME280;67281;48.770;11.440;2023-08-24T04:12:34;97439.88;;;26.04;51.37
78073;BME280;67281;48.770;11.440;2023-08-24T04:15:02;97437.25;;;26.17;51.08
78073;BME280;67281;48.770;11.440;2023-08-24T04:17:29;97438.63;;;26.00;50.94
78073;BME280;67281;48.770;11.440;2023-08-24T04:19:56;97445.31;;;26.24;50.84
78073;BME280;67281;48.770;11.440;2023-08-24T04:22:23;97441.47;;;26.40;51.19
78073;BME280;67281;48.770;11.440;2023-08-24T04:24:50;97433.88;;;26.63;52.40
78073;BME280;67281;48.770;11.440;2023-08-24T04:27:17;97436.16;;;26.60;53.62
78073;BME280;67281;48.770;11.440;2023-08-24T04:29:44;97431.34;;;26.42;53.98
78073;BME280;67281;48.770;11.440;2023-08-24T04:32:10;97434.22;;;26.34;52.61
78073;BME280;67281;48.770;11.440;2023-08-24T04:34:37;97436.44;;;26.24;52.74
78073;BME280;67281;48.770;11.440;2023-08-24T04:37:06;97431.44;;;26.14;52.75
78073;BME280;67281;48.770;11.440;2023-08-24T04:39:34;97432.44;;;26.06;52.48
78073;BME280;67281;48.770;11.440;2023-08-24T04:42:01;97424.59;;;26.05;52.82
78073;BME280;67281;48.770;11.440;2023-08-24T04:44:29;97426.84;;;26.01;52.08
78073;BME280;67281;48.770;11.440;2023-08-24T04:46:56;97417.94;;;26.01;52.52
78073;BME280;67281;48.770;11.440;2023-08-24T04:49:23;97423.72;;;25.91;52.25
78073;BME280;67281;48.770;11.440;2023-08-24T04:51:49;97418.13;;;25.86;52.77
78073;BME280;67281;48.770;11.440;2023-08-24T04:54:17;97413.78;;;25.85;52.16
78073;BME280;67281;48.770;11.440;2023-08-24T04:56:44;97413.56;;;25.80;52.35
78073;BME280;67281;48.770;11.440;2023-08-24T04:59:10;97416.88;;;25.82;52.22
78073;BME280;67281;48.770;11.440;2023-08-24T05:01:37;97414.34;;;25.74;52.12
78073;BME280;67281;48.770;11.440;2023-08-24T05:04:04;97417.66;;;25.76;52.55
78073;BME280;67281;48.770;11.440;2023-08-24T05:06:31;97412.06;;;25.71;52.37
78073;BME280;67281;48.770;11.440;2023-08-24T05:08:58;97411.44;;;25.69;52.14
78073;BME280;67281;48.770;11.440;2023-08-24T05:11:26;97412.03;;;25.64;51.97
78073;BME280;67281;48.770;11.440;2023-08-24T05:13:55;97417.56;;;25.63;51.59
78073;BME280;67281;48.770;11.440;2023-08-24T05:16:23;97413.03;;;25.63;51.86
78073;BME280;67281;48.770;11.440;2023-08-24T05:18:50;97405.16;;;25.62;51.88
78073;BME280;67281;48.770;11.440;2023-08-24T05:21:17;97404.97;;;25.63;51.86
78073;BME280;67281;48.770;11.440;2023-08-24T05:23:44;97418.59;;;25.62;51.16
78073;BME280;67281;48.770;11.440;2023-08-24T05:26:11;97420.63;;;25.60;50.69
78073;BME280;67281;48.770;11.440;2023-08-24T05:28:38;97422.50;;;25.59;51.05
78073;BME280;67281;48.770;11.440;2023-08-24T05:31:05;97422.69;;;25.58;51.45
78073;BME280;67281;48.770;11.440;2023-08-24T05:33:32;97417.31;;;25.58;51.38
78073;BME280;67281;48.770;11.440;2023-08-24T05:36:00;97407.81;;;25.55;51.31
78073;BME280;67281;48.770;11.440;2023-08-24T05:38:26;97404.69;;;25.51;50.77
78073;BME280;67281;48.770;11.440;2023-08-24T05:40:53;97407.38;;;25.51;51.05
78073;BME280;67281;48.770;11.440;2023-08-24T05:43:20;97418.09;;;25.51;50.95
78073;BME280;67281;48.770;11.440;2023-08-24T05:45:48;97410.06;;;25.51;51.54
78073;BME280;67281;48.770;11.440;2023-08-24T05:48:15;97413.78;;;25.50;50.97
78073;BME280;67281;48.770;11.440;2023-08-24T05:50:46;97407.38;;;25.51;51.15
78073;BME280;67281;48.770;11.440;2023-08-24T05:53:14;97413.56;;;25.52;51.32
78073;BME280;67281;48.770;11.440;2023-08-24T05:55:41;97410.44;;;25.48;51.21
78073;BME280;67281;48.770;11.440;2023-08-24T05:58:08;97423.25;;;25.46;51.10
78073;BME280;67281;48.770;11.440;2023-08-24T06:00:35;97421.19;;;25.48;51.14
78073;BME280;67281;48.770;11.440;2023-08-24T06:03:02;97419.53;;;25.47;51.09
78073;BME280;67281;48.770;11.440;2023-08-24T06:05:30;97418.91;;;25.45;51.05
78073;BME280;67281;48.770;11.440;2023-08-24T06:07:58;97423.47;;;25.51;51.40
78073;BME280;67281;48.770;11.440;2023-08-24T06:10:25;97417.47;;;25.49;51.18
78073;BME280;67281;48.770;11.440;2023-08-24T06:12:53;97410.88;;;25.52;51.09
78073;BME280;67281;48.770;11.440;2023-08-24T06:15:20;97409.59;;;25.41;51.11
78073;BME280;67281;48.770;11.440;2023-08-24T06:17:51;97413.69;;;25.37;51.28
78073;BME280;67281;48.770;11.440;2023-08-24T06:20:19;97409.38;;;25.43;51.13
78073;BME280;67281;48.770;11.440;2023-08-24T06:22:46;97411.25;;;25.42;51.47
78073;BME280;67281;48.770;11.440;2023-08-24T06:25:13;97410.03;;;25.45;51.49
78073;BME280;67281;48.770;11.440;2023-08-24T06:27:40;97417.88;;;25.46;51.17
78073;BME280;67281;48.770;11.440;2023-08-24T06:30:07;97421.34;;;25.40;51.53
78073;BME280;67281;48.770;11.440;2023-08-24T06:32:34;97419.91;;;25.44;51.58
78073;BME280;67281;48.770;11.440;2023-08-24T06:35:01;97415.03;;;25.54;50.91
78073;BME280;67281;48.770;11.440;2023-08-24T06:37:28;97410.53;;;25.62;50.69
78073;BME280;67281;48.770;11.440;2023-08-24T06:39:54;97419.41;;;25.62;51.44
78073;BME280;67281;48.770;11.440;2023-08-24T06:42:22;97415.13;;;25.68;51.63
78073;BME280;67281;48.770;11.440;2023-08-24T06:44:53;97413.69;;;25.65;51.59
78073;BME280;67281;48.770;11.440;2023-08-24T06:47:20;97412.84;;;25.65;51.39
78073;BME280;67281;48.770;11.440;2023-08-24T06:49:47;97405.03;;;25.70;51.04
78073;BME280;67281;48.770;11.440;2023-08-24T06:52:14;97408.13;;;25.67;51.06
78073;BME280;67281;48.770;11.440;2023-08-24T06:54:41;97406.06;;;25.69;51.27
78073;BME280;67281;48.770;11.440;2023-08-24T06:57:08;97406.50;;;25.72;50.79
78073;BME280;67281;48.770;11.440;2023-08-24T06:59:35;97405.88;;;25.70;51.64
78073;BME280;67281;48.770;11.440;2023-08-24T07:02:02;97402.34;;;25.70;51.55
78073;BME280;67281;48.770;11.440;2023-08-24T07:04:32;97391.63;;;25.76;50.71
78073;BME280;67281;48.770;11.440;2023-08-24T07:07:01;97404.47;;;25.81;50.89
78073;BME280;67281;48.770;11.440;2023-08-24T07:09:32;97397.03;;;25.83;51.10
78073;BME280;67281;48.770;11.440;2023-08-24T07:12:06;97395.63;;;25.87;50.73
78073;BME280;67281;48.770;11.440;2023-08-24T07:14:38;97380.97;;;25.90;50.71
78073;BME280;67281;48.770;11.440;2023-08-24T07:17:10;97369.38;;;25.89;50.71
78073;BME280;67281;48.770;11.440;2023-08-24T07:19:42;97374.34;;;25.92;51.03
78073;BME280;67281;48.770;11.440;2023-08-24T07:22:12;97365.28;;;25.93;51.27
78073;BME280;67281;48.770;11.440;2023-08-24T07:24:40;97366.72;;;25.89;51.41
78073;BME280;67281;48.770;11.440;2023-08-24T07:27:15;97365.25;;;25.86;51.23
78073;BME280;67281;48.770;11.440;2023-08-24T07:29:48;97366.06;;;25.87;51.22
78073;BME280;67281;48.770;11.440;2023-08-24T07:32:17;97368.59;;;25.95;50.37
78073;BME280;67281;48.770;11.440;2023-08-24T07:34:48;97361.72;;;25.86;51.05
78073;BME280;67281;48.770;11.440;2023-08-24T07:37:26;97358.66;;;25.89;51.39
78073;BME280;67281;48.770;11.440;2023-08-24T07:39:54;97354.53;;;25.93;51.49
78073;BME280;67281;48.770;11.440;2023-08-24T07:42:23;97352.69;;;25.94;51.16
78073;BME280;67281;48.770;11.440;2023-08-24T07:44:50;97360.06;;;25.85;51.83
78073;BME280;67281;48.770;11.440;2023-08-24T07:47:18;97365.03;;;25.81;52.34
78073;BME280;67281;48.770;11.440;2023-08-24T07:49:44;97361.50;;;25.81;52.59
78073;BME280;67281;48.770;11.440;2023-08-24T07:52:11;97364.19;;;25.81;52.30
78073;BME280;67281;48.770;11.440;2023-08-24T07:54:39;97359.28;;;25.91;52.17
78073;BME280;67281;48.770;11.440;2023-08-24T07:57:07;97352.88;;;25.92;51.68
78073;BME280;67281;48.770;11.440;2023-08-24T07:59:34;97353.94;;;25.98;51.90
78073;BME280;67281;48.770;11.440;2023-08-24T08:02:02;97354.53;;;26.06;51.34
78073;BME280;67281;48.770;11.440;2023-08-24T08:04:31;97355.38;;;26.13;51.27
78073;BME280;67281;48.770;11.440;2023-08-24T08:07:00;97359.53;;;26.16;51.00
78073;BME280;67281;48.770;11.440;2023-08-24T08:09:32;97359.13;;;26.19;51.39
78073;BME280;67281;48.770;11.440;2023-08-24T08:12:06;97352.31;;;26.23;50.95
78073;BME280;67281;48.770;11.440;2023-08-24T08:14:34;97358.09;;;26.27;51.05
78073;BME280;67281;48.770;11.440;2023-08-24T08:17:01;97348.00;;;26.29;50.43
78073;BME280;67281;48.770;11.440;2023-08-24T08:19:28;97356.88;;;26.29;51.11
78073;BME280;67281;48.770;11.440;2023-08-24T08:21:55;97362.03;;;26.31;50.37
78073;BME280;67281;48.770;11.440;2023-08-24T08:24:22;97355.22;;;26.28;50.38
78073;BME280;67281;48.770;11.440;2023-08-24T08:26:51;97365.38;;;26.33;50.25
78073;BME280;67281;48.770;11.440;2023-08-24T08:29:19;97356.91;;;26.36;50.41
78073;BME280;67281;48.770;11.440;2023-08-24T08:31:46;97359.41;;;26.37;49.99
78073;BME280;67281;48.770;11.440;2023-08-24T08:34:13;97368.28;;;26.38;50.54
78073;BME280;67281;48.770;11.440;2023-08-24T08:36:54;97366.84;;;26.35;50.12
78073;BME280;67281;48.770;11.440;2023-08-24T08:39:22;97372.41;;;26.34;50.58
78073;BME280;67281;48.770;11.440;2023-08-24T08:41:51;97377.78;;;26.34;50.45
78073;BME280;67281;48.770;11.440;2023-08-24T08:44:20;97379.44;;;26.35;50.61
78073;BME280;67281;48.770;11.440;2023-08-24T08:46:51;97378.00;;;26.39;50.40
78073;BME280;67281;48.770;11.440;2023-08-24T08:49:20;97378.22;;;26.44;49.70
78073;BME280;67281;48.770;11.440;2023-08-24T08:51:52;97377.19;;;26.45;49.91
78073;BME280;67281;48.770;11.440;2023-08-24T08:54:21;97365.81;;;26.43;50.17
78073;BME280;67281;48.770;11.440;2023-08-24T08:56:52;97365.63;;;26.44;50.29
78073;BME280;67281;48.770;11.440;2023-08-24T08:59:25;97368.72;;;26.48;49.86
78073;BME280;67281;48.770;11.440;2023-08-24T09:02:00;97373.69;;;26.51;49.81
78073;BME280;67281;48.770;11.440;2023-08-24T09:04:36;97359.84;;;26.54;49.95
78073;BME280;67281;48.770;11.440;2023-08-24T09:07:07;97361.91;;;26.59;49.81
78073;BME280;67281;48.770;11.440;2023-08-24T09:09:41;97367.91;;;26.61;50.20
78073;BME280;67281;48.770;11.440;2023-08-24T09:12:14;97368.34;;;26.64;50.09
78073;BME280;67281;48.770;11.440;2023-08-24T09:14:46;97358.63;;;26.70;49.41
78073;BME280;67281;48.770;11.440;2023-08-24T09:17:24;97353.66;;;26.73;49.64
78073;BME280;67281;48.770;11.440;2023-08-24T09:19:57;97331.53;;;26.71;49.53
78073;BME280;67281;48.770;11.440;2023-08-24T09:22:26;97326.16;;;26.71;49.34
78073;BME280;67281;48.770;11.440;2023-08-24T09:24:55;97316.84;;;26.74;49.58
78073;BME280;67281;48.770;11.440;2023-08-24T09:27:21;97312.66;;;26.78;49.79
78073;BME280;67281;48.770;11.440;2023-08-24T09:29:52;97307.28;;;26.84;49.29
78073;BME280;67281;48.770;11.440;2023-08-24T09:32:23;97308.31;;;26.90;49.55
78073;BME280;67281;48.770;11.440;2023-08-24T09:34:50;97294.88;;;26.97;49.67
78073;BME280;67281;48.770;11.440;2023-08-24T09:37:17;97297.16;;;27.00;49.33
78073;BME280;67281;48.770;11.440;2023-08-24T09:39:45;97312.06;;;27.02;49.24
78073;BME280;67281;48.770;11.440;2023-08-24T09:42:13;97311.66;;;26.99;49.12
78073;BME280;67281;48.770;11.440;2023-08-24T09:44:43;97301.91;;;26.98;48.69
78073;BME280;67281;48.770;11.440;2023-08-24T09:47:13;97300.66;;;27.00;49.35
78073;BME280;67281;48.770;11.440;2023-08-24T09:49:40;97295.28;;;27.07;48.86
78073;BME280;67281;48.770;11.440;2023-08-24T09:52:08;97297.97;;;27.13;49.69
78073;BME280;67281;48.770;11.440;2023-08-24T09:54:37;97291.75;;;27.13;49.26
78073;BME280;67281;48.770;11.440;2023-08-24T09:57:06;97291.53;;;27.21;49.47
78073;BME280;67281;48.770;11.440;2023-08-24T09:59:34;97290.88;;;27.26;49.48
78073;BME280;67281;48.770;11.440;2023-08-24T10:02:02;97282.59;;;27.27;48.99
78073;BME280;67281;48.770;11.440;2023-08-24T10:04:33;97292.72;;;27.32;49.11
78073;BME280;67281;48.770;11.440;2023-08-24T10:07:08;97296.22;;;27.39;48.90
78073;BME280;67281;48.770;11.440;2023-08-24T10:09:40;97296.22;;;27.39;49.13
78073;BME280;67281;48.770;11.440;2023-08-24T10:12:12;97278.41;;;27.44;49.16
78073;BME280;67281;48.770;11.440;2023-08-24T10:14:58;97278.41;;;27.44;48.59
78073;BME280;67281;48.770;11.440;2023-08-24T10:17:27;97277.09;;;27.54;48.65
78073;BME280;67281;48.770;11.440;2023-08-24T10:19:55;97270.25;;;27.58;48.43
78073;BME280;67281;48.770;11.440;2023-08-24T10:22:24;97263.00;;;27.58;49.03
78073;BME280;67281;48.770;11.440;2023-08-24T10:24:53;97267.34;;;27.66;48.74
78073;BME280;67281;48.770;11.440;2023-08-24T10:27:26;97268.38;;;27.65;48.55
78073;BME280;67281;48.770;11.440;2023-08-24T10:29:54;97270.63;;;27.68;48.39
78073;BME280;67281;48.770;11.440;2023-08-24T10:32:21;97261.09;;;27.72;48.09
78073;BME280;67281;48.770;11.440;2023-08-24T10:34:49;97253.22;;;27.70;48.42
78073;BME280;67281;48.770;11.440;2023-08-24T10:37:16;97246.75;;;27.78;48.37
78073;BME280;67281;48.770;11.440;2023-08-24T10:39:49;97241.16;;;27.79;48.08
78073;BME280;67281;48.770;11.440;2023-08-24T10:42:15;97239.69;;;27.84;48.53
78073;BME280;67281;48.770;11.440;2023-08-24T10:44:46;97236.94;;;27.90;47.90
78073;BME280;67281;48.770;11.440;2023-08-24T10:47:21;97231.53;;;27.97;48.07
78073;BME280;67281;48.770;11.440;2023-08-24T10:52:30;97221.56;;;27.97;47.73
78073;BME280;67281;48.770;11.440;2023-08-24T10:55:01;97223.00;;;28.00;48.00
78073;BME280;67281;48.770;11.440;2023-08-24T10:57:37;97203.88;;;28.08;48.21
78073;BME280;67281;48.770;11.440;2023-08-24T11:00:15;97198.50;;;28.08;48.11
78073;BME280;67281;48.770;11.440;2023-08-24T11:02:48;97199.03;;;28.17;47.72
78073;BME280;67281;48.770;11.440;2023-08-24T11:08:05;97176.81;;;28.21;47.78
78073;BME280;67281;48.770;11.440;2023-08-24T11:10:44;97168.97;;;28.20;47.71
78073;BME280;67281;48.770;11.440;2023-08-24T11:13:16;97166.16;;;28.33;47.06
78073;BME280;67281;48.770;11.440;2023-08-24T11:15:47;97163.44;;;28.33;47.46
78073;BME280;67281;48.770;11.440;2023-08-24T11:18:22;97158.88;;;28.33;47.93
78073;BME280;67281;48.770;11.440;2023-08-24T11:21:00;97146.00;;;28.35;48.03
78073;BME280;67281;48.770;11.440;2023-08-24T11:23:29;97152.59;;;28.39;47.70
78073;BME280;67281;48.770;11.440;2023-08-24T11:25:58;97148.63;;;28.42;47.81
78073;BME280;67281;48.770;11.440;2023-08-24T11:28:27;97142.34;;;28.48;48.07
78073;BME280;67281;48.770;11.440;2023-08-24T11:30:55;97153.75;;;28.50;47.98
78073;BME280;67281;48.770;11.440;2023-08-24T11:33:29;97142.06;;;28.56;47.60
78073;BME280;67281;48.770;11.440;2023-08-24T11:35:56;97143.66;;;28.64;47.50
78073;BME280;67281;48.770;11.440;2023-08-24T11:38:24;97141.47;;;28.72;47.25
78073;BME280;67281;48.770;11.440;2023-08-24T11:40:51;97132.78;;;28.70;47.50
78073;BME280;67281;48.770;11.440;2023-08-24T11:43:25;97132.63;;;28.65;47.24
78073;BME280;67281;48.770;11.440;2023-08-24T11:45:55;97133.09;;;28.81;47.06
78073;BME280;67281;48.770;11.440;2023-08-24T11:48:25;97130.78;;;28.84;46.57
78073;BME280;67281;48.770;11.440;2023-08-24T11:50:57;97127.34;;;28.95;46.72
78073;BME280;67281;48.770;11.440;2023-08-24T11:53:24;97136.94;;;28.91;46.96
78073;BME280;67281;48.770;11.440;2023-08-24T11:55:52;97138.81;;;28.91;46.98
78073;BME280;67281;48.770;11.440;2023-08-24T11:58:31;97133.84;;;28.88;46.93
78073;BME280;67281;48.770;11.440;2023-08-24T12:00:59;97141.28;;;28.92;46.45
78073;BME280;67281;48.770;11.440;2023-08-24T12:03:27;97137.72;;;29.10;46.83
78073;BME280;67281;48.770;11.440;2023-08-24T12:05:54;97130.44;;;29.10;46.42
78073;BME280;67281;48.770;11.440;2023-08-24T12:08:25;97143.25;;;29.15;46.27
78073;BME280;67281;48.770;11.440;2023-08-24T12:10:52;97141.75;;;29.19;46.04
78073;BME280;67281;48.770;11.440;2023-08-24T12:13:19;97134.78;;;29.11;46.48
78073;BME280;67281;48.770;11.440;2023-08-24T12:15:45;97128.69;;;29.16;45.72
78073;BME280;67281;48.770;11.440;2023-08-24T12:18:14;97126.22;;;29.15;46.07
78073;BME280;67281;48.770;11.440;2023-08-24T12:20:42;97128.84;;;29.21;46.20
78073;BME280;67281;48.770;11.440;2023-08-24T12:23:10;97125.47;;;29.26;46.00
78073;BME280;67281;48.770;11.440;2023-08-24T12:25:38;97126.28;;;29.26;44.82
78073;BME280;67281;48.770;11.440;2023-08-24T12:28:15;97114.56;;;29.32;45.49
78073;BME280;67281;48.770;11.440;2023-08-24T12:30:46;97114.94;;;29.36;45.08
78073;BME280;67281;48.770;11.440;2023-08-24T12:33:30;97115.53;;;29.38;45.61
78073;BME280;67281;48.770;11.440;2023-08-24T12:35:58;97111.41;;;29.35;45.78
78073;BME280;67281;48.770;11.440;2023-08-24T12:38:28;97102.81;;;29.27;46.06
78073;BME280;67281;48.770;11.440;2023-08-24T12:40:55;97099.06;;;29.28;45.64
78073;BME280;67281;48.770;11.440;2023-08-24T12:43:25;97095.81;;;29.37;44.84
78073;BME280;67281;48.770;11.440;2023-08-24T12:45:53;97086.22;;;29.41;45.27
78073;BME280;67281;48.770;11.440;2023-08-24T12:48:20;97079.59;;;29.37;45.56
78073;BME280;67281;48.770;11.440;2023-08-24T12:50:46;97073.22;;;29.50;45.48
78073;BME280;67281;48.770;11.440;2023-08-24T12:53:13;97065.94;;;29.51;45.43
78073;BME280;67281;48.770;11.440;2023-08-24T12:55:40;97065.94;;;29.51;46.24
78073;BME280;67281;48.770;11.440;2023-08-24T12:58:07;97069.94;;;29.60;45.69
78073;BME280;67281;48.770;11.440;2023-08-24T13:00:34;97075.13;;;29.61;45.75
78073;BME280;67281;48.770;11.440;2023-08-24T13:03:01;97068.56;;;29.69;45.20
78073;BME280;67281;48.770;11.440;2023-08-24T13:05:27;97058.66;;;29.63;45.75